Malgrat de Mar, Spain
Current Conditions -  °F | °C
As of 2:00 PM on Sunday 23 Nov 2014 (Local Time) from LEGE Reporting Station
Broken Clouds Broken Clouds  
Wind Chill: 66°   Ceiling: 2000
Heat Index: 66°   Visibility: 6mi
Dew Point: 61°   Wind: 1mph
Humidity: 83%   Direction: NA
Pressure: 30.09"   Gusts: NA
Location:  41.65°N, 2.74°E
Report Text: LEGE 231300Z VRB01KT 9999 FEW015 BKN020 19/16 Q1019
Loading
Personal Weather Stations






























Interactive Weather Map New forecast layout! Learn more

10-Day Weather Forecast

Advertisements
Track Severe Weather on mobile